createdAt,value
2022-09-24T00:01:35.720Z,14.90
2022-09-24T00:04:06.714Z,14.80
2022-09-24T00:06:42.274Z,14.80
2022-09-24T00:09:09.795Z,14.90
2022-09-24T00:11:37.959Z,14.80
2022-09-24T00:14:07.000Z,14.90
2022-09-24T00:16:35.242Z,14.90
2022-09-24T00:19:04.174Z,14.80
2022-09-24T00:21:34.853Z,14.80
2022-09-24T00:24:07.636Z,14.80
2022-09-24T00:26:49.775Z,14.80
2022-09-24T00:29:21.947Z,14.80
2022-09-24T00:31:50.583Z,14.80
2022-09-24T00:34:18.390Z,14.70
2022-09-24T00:36:48.512Z,14.60
2022-09-24T00:39:16.040Z,14.60
2022-09-24T00:41:52.707Z,14.60
2022-09-24T00:44:54.163Z,14.60
2022-09-24T00:47:30.271Z,14.70
2022-09-24T00:50:23.894Z,14.70
2022-09-24T00:52:56.575Z,14.70
2022-09-24T00:55:24.955Z,14.70
2022-09-24T00:57:57.158Z,14.70
2022-09-24T01:00:24.174Z,14.70
2022-09-24T01:02:57.513Z,14.70
2022-09-24T01:05:24.478Z,14.60
2022-09-24T01:07:51.260Z,14.60
2022-09-24T01:10:45.133Z,14.50
2022-09-24T01:13:23.107Z,14.60
2022-09-24T01:16:00.105Z,14.60
2022-09-24T01:18:51.227Z,14.60
2022-09-24T01:21:42.022Z,14.60
2022-09-24T01:24:37.385Z,14.60
2022-09-24T01:27:30.339Z,14.60
2022-09-24T01:30:07.456Z,14.60
2022-09-24T01:32:34.679Z,14.60
2022-09-24T01:35:16.110Z,14.50
2022-09-24T01:37:47.240Z,14.60
2022-09-24T01:40:14.654Z,14.70
2022-09-24T01:42:44.858Z,14.60
2022-09-24T01:45:12.440Z,14.60
2022-09-24T01:47:41.519Z,14.60
2022-09-24T01:50:14.523Z,14.60
2022-09-24T01:53:02.701Z,14.60
2022-09-24T01:55:38.419Z,14.60
2022-09-24T01:58:13.708Z,14.70
2022-09-24T02:00:47.165Z,14.50
2022-09-24T02:03:19.010Z,14.50
2022-09-24T02:05:59.004Z,14.50
2022-09-24T02:08:31.626Z,14.50
2022-09-24T02:11:05.207Z,14.50
2022-09-24T02:13:40.151Z,14.50
2022-09-24T02:16:11.171Z,14.50
2022-09-24T02:18:46.928Z,14.40
2022-09-24T02:21:16.963Z,14.40
2022-09-24T02:24:01.819Z,14.40
2022-09-24T02:26:29.838Z,14.40
2022-09-24T02:28:57.444Z,14.20
2022-09-24T02:31:34.079Z,14.30
2022-09-24T02:34:22.115Z,14.30
2022-09-24T02:37:00.370Z,14.40
2022-09-24T02:39:27.370Z,14.40
2022-09-24T02:41:56.695Z,14.30
2022-09-24T02:44:24.288Z,14.20
2022-09-24T02:46:51.339Z,14.20
2022-09-24T02:49:18.763Z,14.10
2022-09-24T02:51:46.522Z,14.20
2022-09-24T02:54:13.412Z,14.10
2022-09-24T02:56:40.626Z,14.10
2022-09-24T02:59:07.890Z,14.10
2022-09-24T03:01:35.704Z,14.10
2022-09-24T03:04:02.981Z,14.10
2022-09-24T03:06:31.128Z,14.10
2022-09-24T03:08:58.053Z,14.10
2022-09-24T03:11:25.661Z,14.10
2022-09-24T03:13:52.464Z,14.10
2022-09-24T03:16:19.828Z,14.10
2022-09-24T03:18:48.024Z,14.10
2022-09-24T03:21:17.606Z,14.10
2022-09-24T03:23:44.771Z,14.10
2022-09-24T03:26:11.652Z,14.10
2022-09-24T03:28:40.535Z,14.10
2022-09-24T03:31:08.891Z,14.10
2022-09-24T03:33:42.198Z,14.10
2022-09-24T03:36:16.062Z,14.00
2022-09-24T03:38:44.743Z,14.10
2022-09-24T03:41:12.978Z,14.00
2022-09-24T03:43:40.640Z,14.00
2022-09-24T03:46:09.242Z,14.10
2022-09-24T03:48:39.084Z,14.10
2022-09-24T03:51:14.924Z,14.00
2022-09-24T03:53:42.376Z,14.10
2022-09-24T03:56:09.860Z,14.00
2022-09-24T03:58:39.127Z,14.00
2022-09-24T04:01:12.091Z,14.10
2022-09-24T04:03:43.145Z,14.00
2022-09-24T04:06:09.924Z,14.00
2022-09-24T04:08:36.755Z,13.80
2022-09-24T04:11:04.421Z,14.00
2022-09-24T04:13:31.586Z,13.90
2022-09-24T04:16:04.990Z,13.90
2022-09-24T04:18:35.700Z,13.90
2022-09-24T04:21:05.241Z,13.90
2022-09-24T04:23:32.475Z,13.90
2022-09-24T04:26:02.196Z,13.90
2022-09-24T04:28:30.127Z,13.90
2022-09-24T04:30:57.593Z,13.90
2022-09-24T04:33:26.796Z,13.90
2022-09-24T04:35:53.645Z,13.80
2022-09-24T04:38:21.354Z,13.80
2022-09-24T04:40:49.376Z,13.80
2022-09-24T04:43:19.190Z,13.80
2022-09-24T04:45:46.609Z,13.70
2022-09-24T04:48:13.968Z,13.70
2022-09-24T04:50:45.718Z,13.70
2022-09-24T04:53:13.481Z,13.70
2022-09-24T04:55:41.756Z,13.80
2022-09-24T04:58:09.390Z,13.70
2022-09-24T05:00:36.389Z,13.70
2022-09-24T05:03:03.866Z,13.80
2022-09-24T05:05:32.245Z,13.80
2022-09-24T05:07:59.818Z,13.70
2022-09-24T05:10:27.634Z,13.80
2022-09-24T05:12:54.734Z,13.70
2022-09-24T05:15:21.960Z,13.70
2022-09-24T05:17:48.814Z,13.70
2022-09-24T05:20:16.983Z,13.60
2022-09-24T05:22:49.251Z,13.70
2022-09-24T05:25:21.253Z,13.70
2022-09-24T05:27:52.843Z,13.70
2022-09-24T05:30:21.497Z,13.60
2022-09-24T05:32:52.030Z,13.60
2022-09-24T05:35:21.505Z,13.50
2022-09-24T05:37:49.800Z,13.50
2022-09-24T05:40:35.487Z,13.50
2022-09-24T05:43:04.079Z,13.50
2022-09-24T05:45:31.906Z,13.60
2022-09-24T05:48:00.194Z,13.50
2022-09-24T05:50:27.814Z,13.50
2022-09-24T05:52:55.216Z,13.60
2022-09-24T05:55:22.144Z,13.50
2022-09-24T05:57:49.319Z,13.50
2022-09-24T06:00:16.953Z,13.40
2022-09-24T06:02:45.240Z,13.40
2022-09-24T06:05:12.754Z,13.40
2022-09-24T06:07:39.844Z,13.40
2022-09-24T06:10:10.327Z,13.50
2022-09-24T06:12:37.112Z,13.60
2022-09-24T06:15:04.495Z,13.60
2022-09-24T06:17:32.310Z,13.60
2022-09-24T06:19:59.243Z,13.50
2022-09-24T06:22:28.534Z,13.50
2022-09-24T06:24:57.229Z,13.50
2022-09-24T06:27:24.230Z,13.50
2022-09-24T06:29:51.066Z,13.50
2022-09-24T06:32:44.521Z,13.50
2022-09-24T06:35:11.344Z,13.50
2022-09-24T06:37:38.144Z,13.60
2022-09-24T06:40:05.745Z,13.60
2022-09-24T06:42:32.673Z,13.50
2022-09-24T06:44:59.817Z,13.60
2022-09-24T06:47:26.666Z,13.50
2022-09-24T06:49:53.685Z,13.50
2022-09-24T06:52:20.608Z,13.60
2022-09-24T06:54:47.444Z,13.60
2022-09-24T06:57:16.323Z,13.60
2022-09-24T06:59:43.108Z,13.50
2022-09-24T07:02:10.611Z,13.60
2022-09-24T07:04:37.461Z,13.60
2022-09-24T07:07:25.265Z,13.70
2022-09-24T07:09:52.149Z,13.80
2022-09-24T07:12:19.125Z,13.80
2022-09-24T07:14:49.768Z,13.80
2022-09-24T07:17:16.637Z,13.80
2022-09-24T07:19:43.526Z,13.70
2022-09-24T07:22:10.517Z,13.70
2022-09-24T07:24:37.440Z,13.80
2022-09-24T07:27:05.426Z,13.90
2022-09-24T07:29:32.647Z,13.90
2022-09-24T07:31:59.717Z,13.90
2022-09-24T07:34:26.607Z,13.90
2022-09-24T07:36:56.123Z,13.90
2022-09-24T07:39:24.413Z,14.00
2022-09-24T07:41:52.311Z,14.00
2022-09-24T07:44:23.206Z,14.10
2022-09-24T07:46:51.485Z,14.10
2022-09-24T07:49:18.392Z,14.10
2022-09-24T07:51:48.463Z,14.10
2022-09-24T07:54:18.966Z,14.10
2022-09-24T07:56:49.069Z,14.20
2022-09-24T07:59:16.693Z,14.20
2022-09-24T08:01:46.485Z,14.30
2022-09-24T08:04:15.935Z,14.30
2022-09-24T08:06:47.523Z,14.30
2022-09-24T08:09:19.535Z,14.40
2022-09-24T08:11:46.714Z,14.50
2022-09-24T08:14:13.548Z,14.60
2022-09-24T08:16:40.795Z,14.60
2022-09-24T08:19:13.772Z,14.80
2022-09-24T08:21:40.583Z,14.80
2022-09-24T08:24:07.511Z,14.90
2022-09-24T08:26:34.483Z,15.00
2022-09-24T08:29:01.305Z,15.10
2022-09-24T08:31:28.179Z,15.20
2022-09-24T08:34:20.633Z,15.20
2022-09-24T08:36:47.625Z,15.20
2022-09-24T08:39:16.357Z,15.30
2022-09-24T08:42:00.373Z,15.60
2022-09-24T08:45:18.468Z,15.80
2022-09-24T08:48:24.334Z,16.00
2022-09-24T08:51:02.244Z,16.00
2022-09-24T08:53:48.838Z,15.90
2022-09-24T08:56:32.154Z,16.20
2022-09-24T08:59:00.663Z,16.20
2022-09-24T09:01:36.276Z,16.20
2022-09-24T09:04:42.130Z,16.10
2022-09-24T09:07:23.479Z,16.20
2022-09-24T09:10:19.111Z,16.30
2022-09-24T09:16:59.318Z,16.50
2022-09-24T09:19:33.868Z,16.60
2022-09-24T09:22:16.212Z,16.30
2022-09-24T09:24:52.459Z,16.30
2022-09-24T09:27:21.058Z,16.40
2022-09-24T09:29:52.328Z,16.40
2022-09-24T09:32:31.251Z,16.30
2022-09-24T09:35:33.270Z,16.30
2022-09-24T09:38:19.596Z,16.30
2022-09-24T09:41:06.744Z,16.30
2022-09-24T09:43:33.931Z,16.20
2022-09-24T09:46:11.772Z,16.30
2022-09-24T09:48:49.038Z,16.50
2022-09-24T09:51:23.008Z,16.60
2022-09-24T09:54:00.654Z,16.50
2022-09-24T09:56:43.652Z,16.70
2022-09-24T09:59:13.580Z,16.80
2022-09-24T10:01:43.361Z,16.70
2022-09-24T10:04:37.346Z,16.80
2022-09-24T10:07:08.624Z,16.70
2022-09-24T10:09:36.175Z,16.60
2022-09-24T10:12:22.109Z,16.60
2022-09-24T10:15:04.598Z,16.60
2022-09-24T10:17:38.485Z,16.70
2022-09-24T10:20:27.942Z,16.60
2022-09-24T10:23:03.205Z,16.60
2022-09-24T10:25:31.979Z,16.70
2022-09-24T10:28:27.255Z,16.90
2022-09-24T10:31:26.387Z,16.90
2022-09-24T10:33:56.920Z,16.80
2022-09-24T10:36:26.378Z,16.80
2022-09-24T10:39:06.057Z,16.90
2022-09-24T10:41:33.491Z,16.90
2022-09-24T10:44:17.150Z,16.90
2022-09-24T10:47:08.239Z,16.90
2022-09-24T10:49:55.691Z,16.90
2022-09-24T10:52:36.418Z,16.80
2022-09-24T10:55:39.192Z,16.90
2022-09-24T10:58:36.865Z,16.90
2022-09-24T11:01:17.932Z,16.90
2022-09-24T11:04:13.001Z,17.00
2022-09-24T11:06:48.688Z,17.00
2022-09-24T11:09:36.590Z,17.00
2022-09-24T11:12:24.702Z,17.00
2022-09-24T11:15:34.927Z,16.80
2022-09-24T11:18:10.270Z,17.00
2022-09-24T11:20:40.840Z,16.90
2022-09-24T11:23:25.211Z,16.80
2022-09-24T11:26:13.760Z,16.80
2022-09-24T11:29:08.450Z,16.80
2022-09-24T11:31:48.433Z,16.80
2022-09-24T11:34:51.138Z,16.70
2022-09-24T11:37:25.209Z,16.70
2022-09-24T11:40:10.910Z,16.80
2022-09-24T11:42:59.628Z,16.90
2022-09-24T11:45:42.222Z,17.10
2022-09-24T11:48:24.761Z,17.30
2022-09-24T11:51:10.966Z,17.30
2022-09-24T11:53:37.816Z,17.10
2022-09-24T11:56:14.975Z,16.90
2022-09-24T11:59:00.254Z,16.90
2022-09-24T12:01:32.532Z,16.90
2022-09-24T12:03:59.562Z,17.00
2022-09-24T12:06:42.395Z,16.90
2022-09-24T12:09:09.322Z,16.80
2022-09-24T12:11:54.685Z,16.90
2022-09-24T12:14:32.321Z,16.80
2022-09-24T12:17:17.117Z,17.00
2022-09-24T12:19:58.335Z,17.00
2022-09-24T12:22:27.347Z,16.90
2022-09-24T12:25:00.759Z,16.90
2022-09-24T12:27:38.327Z,16.90
2022-09-24T12:30:55.095Z,16.90
2022-09-24T12:34:16.704Z,16.80
2022-09-24T12:37:08.287Z,16.70
2022-09-24T12:40:13.806Z,16.70
2022-09-24T12:42:46.110Z,16.40
2022-09-24T12:45:21.225Z,16.70
2022-09-24T12:47:58.529Z,16.50
2022-09-24T12:50:32.340Z,16.60
2022-09-24T12:53:00.013Z,16.50
2022-09-24T12:55:34.348Z,16.70
2022-09-24T12:58:07.353Z,16.80
2022-09-24T13:00:39.159Z,17.00
2022-09-24T13:03:27.356Z,16.70
2022-09-24T13:05:56.714Z,16.80
2022-09-24T13:08:26.303Z,16.90
2022-09-24T13:10:56.343Z,17.00
2022-09-24T13:13:31.499Z,16.90
2022-09-24T13:16:19.895Z,16.90
2022-09-24T13:18:56.275Z,17.00
2022-09-24T13:21:31.178Z,16.70
2022-09-24T13:23:58.435Z,16.80
2022-09-24T13:26:25.485Z,16.90
2022-09-24T13:28:58.718Z,17.00
2022-09-24T13:31:42.722Z,16.90
2022-09-24T13:34:33.722Z,17.00
2022-09-24T13:37:23.483Z,17.00
2022-09-24T13:40:06.710Z,17.00
2022-09-24T13:42:58.133Z,17.10
2022-09-24T13:45:25.947Z,17.00
2022-09-24T13:47:59.798Z,17.00
2022-09-24T13:50:42.005Z,17.10
2022-09-24T13:53:17.842Z,17.00
2022-09-24T13:55:47.872Z,17.00
2022-09-24T13:58:34.498Z,17.00
2022-09-24T14:01:08.714Z,17.00
2022-09-24T14:03:39.898Z,16.90
2022-09-24T14:06:13.230Z,16.90
2022-09-24T14:08:45.903Z,17.00
2022-09-24T14:11:16.897Z,17.00
2022-09-24T14:13:46.794Z,17.10
2022-09-24T14:16:20.046Z,16.90
2022-09-24T14:18:48.043Z,16.90
2022-09-24T14:21:31.329Z,16.90
2022-09-24T14:24:17.973Z,17.00
2022-09-24T14:26:57.225Z,16.80
2022-09-24T14:29:38.276Z,16.90
2022-09-24T14:32:07.352Z,16.80
2022-09-24T14:34:43.471Z,16.80
2022-09-24T14:37:31.098Z,16.70
2022-09-24T14:40:12.211Z,16.80
2022-09-24T14:42:41.394Z,16.80
2022-09-24T14:45:10.453Z,16.70
2022-09-24T14:47:37.919Z,16.60
2022-09-24T14:50:28.001Z,16.50
2022-09-24T14:53:00.807Z,16.50
2022-09-24T14:55:42.541Z,16.50
2022-09-24T14:58:31.534Z,16.50
2022-09-24T15:01:07.285Z,16.50
2022-09-24T15:03:48.182Z,16.50
2022-09-24T15:06:22.964Z,16.40
2022-09-24T15:08:58.554Z,16.50
2022-09-24T15:11:28.142Z,16.40
2022-09-24T15:14:20.233Z,16.40
2022-09-24T15:16:47.774Z,16.40
2022-09-24T15:19:28.635Z,16.40
2022-09-24T15:21:57.515Z,16.40
2022-09-24T15:24:25.378Z,16.40
2022-09-24T15:27:05.207Z,16.30
2022-09-24T15:29:33.079Z,16.40
2022-09-24T15:32:00.624Z,16.40
2022-09-24T15:34:29.244Z,16.50
2022-09-24T15:37:01.939Z,16.40
2022-09-24T15:39:30.218Z,16.40
2022-09-24T15:41:57.246Z,16.40
2022-09-24T15:44:29.965Z,16.40
2022-09-24T15:47:00.066Z,16.10
2022-09-24T15:49:27.058Z,15.90
2022-09-24T15:51:57.328Z,16.10
2022-09-24T15:54:24.986Z,16.00
2022-09-24T15:56:52.749Z,16.00
2022-09-24T15:59:21.586Z,15.90
2022-09-24T16:01:51.677Z,15.90
2022-09-24T16:04:18.847Z,15.90
2022-09-24T16:06:49.630Z,15.90
2022-09-24T16:09:16.778Z,15.90
2022-09-24T16:11:47.291Z,15.80
2022-09-24T16:14:16.301Z,15.90
2022-09-24T16:16:43.330Z,15.70
2022-09-24T16:19:10.602Z,15.80
2022-09-24T16:21:37.843Z,15.80
2022-09-24T16:24:05.081Z,15.80
2022-09-24T16:26:32.437Z,15.70
2022-09-24T16:29:01.920Z,15.70
2022-09-24T16:31:28.949Z,15.70
2022-09-24T16:33:56.020Z,15.50
2022-09-24T16:36:24.040Z,15.40
2022-09-24T16:38:52.412Z,15.50
2022-09-24T16:41:19.773Z,15.50
2022-09-24T16:43:47.115Z,15.50
2022-09-24T16:46:20.506Z,15.60
2022-09-24T16:48:50.943Z,15.50
2022-09-24T16:51:18.594Z,15.50
2022-09-24T16:53:51.779Z,15.40
2022-09-24T16:56:19.269Z,15.50
2022-09-24T16:58:49.548Z,15.30
2022-09-24T17:01:18.996Z,15.20
2022-09-24T17:03:53.140Z,15.30
2022-09-24T17:06:23.221Z,15.30
2022-09-24T17:09:08.717Z,15.40
2022-09-24T17:11:36.271Z,15.40
2022-09-24T17:14:11.921Z,15.30
2022-09-24T17:19:37.210Z,15.20
2022-09-24T17:22:08.589Z,15.20
2022-09-24T17:24:40.898Z,15.30
2022-09-24T17:27:08.752Z,15.30
2022-09-24T17:29:43.369Z,15.20
2022-09-24T17:32:10.568Z,15.20
2022-09-24T17:34:40.144Z,15.20
2022-09-24T17:37:09.430Z,15.20
2022-09-24T17:39:38.732Z,15.10
2022-09-24T17:42:07.070Z,15.20
2022-09-24T17:44:35.178Z,15.20
2022-09-24T17:47:02.340Z,15.10
2022-09-24T17:49:29.658Z,15.20
2022-09-24T17:51:57.302Z,15.00
2022-09-24T17:54:27.009Z,15.10
2022-09-24T17:56:54.301Z,15.10
2022-09-24T17:59:26.259Z,15.10
2022-09-24T18:01:54.540Z,15.10
2022-09-24T18:04:22.050Z,14.90
2022-09-24T18:06:50.229Z,15.00
2022-09-24T18:09:18.915Z,15.00
2022-09-24T18:11:52.566Z,15.00
2022-09-24T18:14:22.593Z,14.90
2022-09-24T18:16:50.527Z,14.90
2022-09-24T18:19:18.137Z,15.00
2022-09-24T18:21:51.413Z,15.00
2022-09-24T18:24:18.506Z,15.00
2022-09-24T18:26:51.978Z,14.90
2022-09-24T18:29:20.212Z,15.00
2022-09-24T18:31:48.079Z,15.00
2022-09-24T18:34:17.618Z,15.00
2022-09-24T18:39:29.299Z,15.00
2022-09-24T18:42:24.146Z,15.00
2022-09-24T18:44:56.407Z,15.00
2022-09-24T18:47:25.613Z,14.90
2022-09-24T18:49:52.424Z,15.00
2022-09-24T18:54:47.381Z,14.90
2022-09-24T18:57:16.896Z,14.90
2022-09-24T18:59:46.939Z,14.90
2022-09-24T19:02:14.586Z,14.90
2022-09-24T19:04:44.321Z,14.90
2022-09-24T19:07:11.039Z,14.80
2022-09-24T19:09:37.821Z,14.80
2022-09-24T19:12:08.019Z,14.70
2022-09-24T19:14:37.295Z,14.80
2022-09-24T19:17:07.079Z,14.80
2022-09-24T19:19:39.026Z,14.90
2022-09-24T19:22:23.473Z,14.80
2022-09-24T19:25:28.649Z,14.80
2022-09-24T19:28:02.263Z,14.80
2022-09-24T19:30:41.513Z,14.80
2022-09-24T19:33:23.032Z,14.80
2022-09-24T19:36:48.996Z,14.80
2022-09-24T19:39:28.077Z,14.80
2022-09-24T19:42:17.831Z,14.70
2022-09-24T19:44:45.081Z,14.70
2022-09-24T19:47:15.633Z,14.80
2022-09-24T19:49:42.347Z,14.70
2022-09-24T19:52:11.627Z,14.60
2022-09-24T19:54:41.202Z,14.60
2022-09-24T19:57:11.602Z,14.50
2022-09-24T19:59:40.743Z,14.50
2022-09-24T20:03:03.842Z,14.50
2022-09-24T20:05:33.577Z,14.60
2022-09-24T20:08:13.967Z,14.50
2022-09-24T20:10:53.566Z,14.60
2022-09-24T20:13:29.582Z,14.50
2022-09-24T20:16:29.442Z,14.50
2022-09-24T20:19:01.188Z,14.50
2022-09-24T20:21:32.151Z,14.50
2022-09-24T20:24:03.982Z,14.50
2022-09-24T20:26:51.165Z,14.50
2022-09-24T20:32:45.183Z,14.40
2022-09-24T20:35:16.694Z,14.50
2022-09-24T20:37:52.454Z,14.40
2022-09-24T20:40:19.724Z,14.40
2022-09-24T20:46:05.494Z,14.30
2022-09-24T20:48:32.381Z,14.20
2022-09-24T20:50:59.105Z,14.40
2022-09-24T20:53:28.562Z,14.30
2022-09-24T20:55:55.681Z,14.40
2022-09-24T20:58:25.645Z,14.30
2022-09-24T21:01:51.098Z,14.30
2022-09-24T21:04:02.170Z,14.20
2022-09-24T21:06:35.567Z,14.20
2022-09-24T21:09:05.146Z,14.20
2022-09-24T21:11:34.496Z,14.30
2022-09-24T21:14:04.024Z,14.30
2022-09-24T21:16:42.734Z,14.30
2022-09-24T21:19:34.317Z,14.20
2022-09-24T21:22:01.645Z,14.30
2022-09-24T21:24:49.741Z,14.40
2022-09-24T21:27:19.437Z,14.40
2022-09-24T21:29:47.308Z,14.30
2022-09-24T21:32:17.486Z,14.30
2022-09-24T21:34:45.338Z,14.30
2022-09-24T21:37:16.774Z,14.30
2022-09-24T21:39:45.372Z,14.20
2022-09-24T21:42:12.491Z,14.20
2022-09-24T21:44:39.176Z,14.20
2022-09-24T21:47:27.293Z,14.20
2022-09-24T21:49:54.423Z,14.20
2022-09-24T21:52:24.104Z,14.20
2022-09-24T21:54:50.758Z,14.30
2022-09-24T21:57:26.914Z,14.30
2022-09-24T21:59:59.481Z,14.20
2022-09-24T22:02:31.771Z,14.20
2022-09-24T22:05:01.809Z,14.20
2022-09-24T22:07:28.547Z,14.20
2022-09-24T22:09:55.366Z,14.20
2022-09-24T22:12:24.997Z,14.20
2022-09-24T22:14:55.984Z,14.10
2022-09-24T22:17:22.677Z,14.10
2022-09-24T22:19:51.813Z,14.10
2022-09-24T22:22:22.879Z,14.10
2022-09-24T22:24:49.604Z,14.10
2022-09-24T22:27:20.469Z,14.00
2022-09-24T22:29:52.552Z,14.00
2022-09-24T22:32:20.849Z,14.10
2022-09-24T22:35:06.397Z,14.10
2022-09-24T22:37:33.789Z,14.00
2022-09-24T22:40:02.161Z,14.00
2022-09-24T22:42:28.894Z,14.00
2022-09-24T22:44:58.626Z,13.90
2022-09-24T22:47:25.323Z,13.90
2022-09-24T22:49:52.014Z,14.00
2022-09-24T22:52:18.689Z,14.00
2022-09-24T22:54:49.373Z,14.00
2022-09-24T22:57:16.147Z,13.90
2022-09-24T22:59:42.983Z,13.90
2022-09-24T23:02:13.184Z,13.80
2022-09-24T23:04:41.767Z,13.90
2022-09-24T23:07:08.515Z,14.00
2022-09-24T23:09:35.172Z,13.80
2022-09-24T23:12:02.097Z,13.70
2022-09-24T23:14:28.795Z,13.80
2022-09-24T23:16:58.709Z,13.70
2022-09-24T23:19:46.236Z,13.80
2022-09-24T23:22:12.974Z,13.70
2022-09-24T23:24:40.126Z,13.70
2022-09-24T23:27:06.791Z,13.70
2022-09-24T23:29:33.424Z,13.60
2022-09-24T23:32:00.132Z,13.70
2022-09-24T23:34:26.980Z,13.80
2022-09-24T23:36:53.776Z,13.70
2022-09-24T23:39:20.501Z,13.80
2022-09-24T23:41:47.165Z,13.70
2022-09-24T23:44:13.954Z,13.70
2022-09-24T23:46:40.719Z,13.80
2022-09-24T23:49:07.492Z,13.80
2022-09-24T23:51:34.241Z,13.70
2022-09-24T23:54:00.945Z,13.70
2022-09-24T23:56:28.430Z,13.80
2022-09-24T23:58:55.212Z,13.60
